createdAt,value
2019-02-17T00:01:29.113Z,101432.00
2019-02-17T00:04:13.736Z,101418.00
2019-02-17T00:06:42.123Z,101427.00
2019-02-17T00:09:23.461Z,101374.00
2019-02-17T00:12:11.142Z,101143.00
2019-02-17T00:14:52.400Z,101454.00
2019-02-17T00:17:33.214Z,101420.00
2019-02-17T00:20:20.634Z,101423.00
2019-02-17T00:23:01.375Z,101114.00
2019-02-17T00:25:48.781Z,101185.00
2019-02-17T00:28:29.549Z,101245.00
2019-02-17T00:31:16.934Z,101424.00
2019-02-17T00:33:57.144Z,101429.00
2019-02-17T00:36:44.531Z,101434.00
2019-02-17T00:39:12.542Z,101417.00
2019-02-17T00:41:40.462Z,101417.00
2019-02-17T00:44:08.481Z,101420.00
2019-02-17T00:46:36.455Z,101415.00
2019-02-17T00:49:17.101Z,101149.00
2019-02-17T00:51:45.019Z,101414.00
2019-02-17T00:54:12.908Z,101422.00
2019-02-17T00:56:54.428Z,101423.00
2019-02-17T00:59:43.253Z,101415.00
2019-02-17T01:02:11.122Z,101421.00
2019-02-17T01:04:38.982Z,101420.00
2019-02-17T01:07:06.979Z,101423.00
2019-02-17T01:09:35.891Z,101420.00
2019-02-17T01:12:18.089Z,101474.00
2019-02-17T01:15:06.246Z,101193.00
2019-02-17T01:17:47.090Z,101502.00
2019-02-17T01:20:34.622Z,101191.00
2019-02-17T01:23:15.314Z,101525.00
2019-02-17T01:26:02.672Z,101152.00
2019-02-17T01:28:43.679Z,101417.00
2019-02-17T01:31:31.059Z,101216.00
2019-02-17T01:34:11.779Z,101420.00
2019-02-17T01:36:52.878Z,101415.00
2019-02-17T01:39:33.106Z,101120.00
2019-02-17T01:42:20.706Z,101514.00
2019-02-17T01:44:48.661Z,101414.00
2019-02-17T01:47:17.503Z,101423.00
2019-02-17T01:49:57.815Z,101513.00
2019-02-17T01:52:25.667Z,101432.00
2019-02-17T01:55:06.651Z,101524.00
2019-02-17T01:57:53.990Z,101413.00
2019-02-17T02:00:34.419Z,101407.00
2019-02-17T02:03:02.299Z,101409.00
2019-02-17T02:05:43.619Z,101413.00
2019-02-17T02:08:31.265Z,101149.00
2019-02-17T02:11:12.373Z,101514.00
2019-02-17T02:13:59.965Z,101110.00
2019-02-17T02:16:40.717Z,101306.00
2019-02-17T02:19:08.647Z,101414.00
2019-02-17T02:21:48.829Z,101404.00
2019-02-17T02:24:16.733Z,101395.00
2019-02-17T02:26:57.854Z,101525.00
2019-02-17T02:29:45.262Z,101072.00
2019-02-17T02:32:27.321Z,101378.00
2019-02-17T02:35:14.723Z,101278.00
2019-02-17T02:37:55.665Z,101391.00
2019-02-17T02:40:44.043Z,101404.00
2019-02-17T02:43:11.930Z,101402.00
2019-02-17T02:45:59.377Z,101338.00
2019-02-17T02:48:41.025Z,101467.00
2019-02-17T02:51:28.354Z,101313.00
2019-02-17T02:54:09.234Z,101246.00
2019-02-17T02:56:56.644Z,101377.00
2019-02-17T02:59:37.189Z,101189.00
2019-02-17T03:02:24.537Z,101280.00
2019-02-17T03:05:05.594Z,101375.00
2019-02-17T03:07:47.372Z,101379.00
2019-02-17T03:10:28.355Z,101376.00
2019-02-17T03:13:15.859Z,101382.00
2019-02-17T03:15:43.712Z,101376.00
2019-02-17T03:18:31.032Z,101244.00
2019-02-17T03:21:11.563Z,101179.00
2019-02-17T03:23:58.887Z,101380.00
2019-02-17T03:26:39.565Z,101424.00
2019-02-17T03:29:07.418Z,101377.00
2019-02-17T03:31:37.212Z,101371.00
2019-02-17T03:34:24.553Z,101435.00
2019-02-17T03:37:05.050Z,101414.00
2019-02-17T03:39:52.541Z,101383.00
2019-02-17T03:42:33.339Z,101124.00
2019-02-17T03:45:20.732Z,101383.00
2019-02-17T03:48:01.451Z,101306.00
2019-02-17T03:50:48.827Z,101384.00
2019-02-17T03:53:28.853Z,101443.00
2019-02-17T03:56:16.423Z,101174.00
2019-02-17T03:58:57.000Z,101340.00
2019-02-17T04:01:44.400Z,101398.00
2019-02-17T04:04:24.996Z,101112.00
2019-02-17T04:07:12.324Z,101388.00
2019-02-17T04:09:40.241Z,101398.00
2019-02-17T04:12:08.108Z,101380.00
2019-02-17T04:14:36.026Z,101379.00
2019-02-17T04:17:17.384Z,101134.00
2019-02-17T04:19:57.501Z,101333.00
2019-02-17T04:22:37.538Z,101214.00
2019-02-17T04:25:24.888Z,101384.00
2019-02-17T04:28:05.881Z,101310.00
2019-02-17T04:30:53.246Z,101108.00
2019-02-17T04:33:33.777Z,101329.00
2019-02-17T04:36:21.089Z,101284.00
2019-02-17T04:39:04.140Z,101308.00
2019-02-17T04:41:51.454Z,101383.00
2019-02-17T04:44:32.220Z,101164.00
2019-02-17T04:47:19.570Z,101383.00
2019-02-17T04:50:00.400Z,101379.00
2019-02-17T04:52:48.016Z,101363.00
2019-02-17T04:55:28.547Z,101365.00
2019-02-17T04:58:15.951Z,101245.00
2019-02-17T05:00:43.832Z,101364.00
2019-02-17T05:03:31.157Z,101366.00
2019-02-17T05:05:59.106Z,101365.00
2019-02-17T05:08:26.973Z,101364.00
2019-02-17T05:11:07.931Z,101368.00
2019-02-17T05:13:55.258Z,101366.00
2019-02-17T05:16:36.014Z,101368.00
2019-02-17T05:19:23.383Z,101222.00
2019-02-17T05:22:04.216Z,101226.00
2019-02-17T05:24:51.757Z,101375.00
2019-02-17T05:27:32.230Z,101379.00
2019-02-17T05:30:19.751Z,101107.00
2019-02-17T05:33:00.176Z,101100.00
2019-02-17T05:35:47.525Z,101252.00
2019-02-17T05:38:27.683Z,101360.00
2019-02-17T05:41:15.000Z,101367.00
2019-02-17T05:43:54.972Z,101373.00
2019-02-17T05:46:22.964Z,101365.00
2019-02-17T05:49:05.314Z,101369.00
2019-02-17T05:51:52.664Z,101363.00
2019-02-17T05:54:33.815Z,101365.00
2019-02-17T05:57:21.230Z,101361.00
2019-02-17T06:00:02.149Z,101046.00
2019-02-17T06:02:43.297Z,101363.00
2019-02-17T06:05:23.304Z,101366.00
2019-02-17T06:08:10.690Z,101109.00
2019-02-17T06:10:38.561Z,101360.00
2019-02-17T06:13:26.150Z,101369.00
2019-02-17T06:16:06.829Z,100945.00
2019-02-17T06:18:34.717Z,101381.00
2019-02-17T06:21:14.973Z,101092.00
2019-02-17T06:23:42.866Z,101380.00
2019-02-17T06:26:10.904Z,101370.00
2019-02-17T06:28:51.610Z,101379.00
2019-02-17T06:31:39.022Z,101387.00
2019-02-17T06:34:20.121Z,101386.00
2019-02-17T06:36:48.063Z,101378.00
2019-02-17T06:39:15.928Z,101391.00
2019-02-17T06:42:03.358Z,101217.00
2019-02-17T06:44:43.755Z,101186.00
2019-02-17T06:47:26.028Z,101288.00
2019-02-17T06:50:07.634Z,101085.00
2019-02-17T06:52:35.508Z,101392.00
2019-02-17T06:55:35.555Z,101118.00
2019-02-17T06:58:23.128Z,101394.00
2019-02-17T07:00:56.280Z,101391.00
2019-02-17T07:03:43.622Z,101407.00
2019-02-17T07:06:29.786Z,101392.00
2019-02-17T07:09:17.224Z,101399.00
2019-02-17T07:11:57.546Z,101410.00
2019-02-17T07:14:45.213Z,101316.00
2019-02-17T07:17:13.238Z,101391.00
2019-02-17T07:19:41.136Z,101396.00
2019-02-17T07:22:28.631Z,101394.00
2019-02-17T07:24:56.515Z,101395.00
2019-02-17T07:27:24.511Z,101391.00
2019-02-17T07:30:05.086Z,101388.00
2019-02-17T07:32:52.501Z,101407.00
2019-02-17T07:35:33.315Z,101389.00
2019-02-17T07:38:20.660Z,101141.00
2019-02-17T07:41:01.414Z,101413.00
2019-02-17T07:43:48.826Z,101444.00
2019-02-17T07:46:16.782Z,101399.00
2019-02-17T07:48:44.634Z,101399.00
2019-02-17T07:51:12.531Z,101395.00
2019-02-17T07:53:59.947Z,101359.00
2019-02-17T07:56:27.849Z,101404.00
2019-02-17T07:58:55.806Z,101399.00
2019-02-17T08:01:45.038Z,100996.00
2019-02-17T08:04:26.183Z,101403.00
2019-02-17T08:07:06.675Z,101128.00
2019-02-17T08:09:54.325Z,101152.00
2019-02-17T08:12:22.549Z,101400.00
2019-02-17T08:14:50.475Z,101403.00
2019-02-17T08:17:18.401Z,101400.00
2019-02-17T08:19:46.334Z,101395.00
2019-02-17T08:22:14.276Z,101400.00
2019-02-17T08:24:42.209Z,101407.00
2019-02-17T08:27:29.733Z,101129.00
2019-02-17T08:30:10.307Z,101405.00
2019-02-17T08:32:38.339Z,101401.00
2019-02-17T08:35:08.388Z,101400.00
2019-02-17T08:37:36.379Z,101397.00
2019-02-17T08:40:05.378Z,101403.00
2019-02-17T08:42:33.304Z,101388.00
2019-02-17T08:45:01.316Z,101392.00
2019-02-17T08:47:29.262Z,101383.00
2019-02-17T08:49:58.052Z,101395.00
2019-02-17T08:52:28.281Z,101391.00
2019-02-17T08:55:08.906Z,101384.00
2019-02-17T08:57:56.642Z,101391.00
2019-02-17T09:00:37.340Z,101392.00
2019-02-17T09:03:06.124Z,101388.00
2019-02-17T09:05:46.300Z,101178.00
2019-02-17T09:08:33.711Z,101177.00
2019-02-17T09:11:13.899Z,101175.00
2019-02-17T09:14:01.633Z,101081.00
2019-02-17T09:16:42.348Z,101081.00
2019-02-17T09:19:22.511Z,101128.00
2019-02-17T09:22:09.912Z,101390.00
2019-02-17T09:24:50.042Z,101378.00
2019-02-17T09:27:37.571Z,101496.00
2019-02-17T09:30:18.439Z,101175.00
2019-02-17T09:33:06.247Z,101210.00
2019-02-17T09:35:46.676Z,101067.00
2019-02-17T09:38:34.172Z,101202.00
2019-02-17T09:41:14.692Z,101362.00
2019-02-17T09:43:42.824Z,101361.00
2019-02-17T09:46:24.139Z,101358.00
2019-02-17T09:48:52.303Z,101352.00
2019-02-17T09:51:32.896Z,101466.00
2019-02-17T09:54:13.854Z,101125.00
2019-02-17T09:56:55.335Z,101079.00
2019-02-17T09:59:42.766Z,101355.00
2019-02-17T10:02:26.487Z,101089.00
2019-02-17T10:04:53.036Z,101356.00
2019-02-17T10:07:21.067Z,101340.00
2019-02-17T10:10:10.622Z,101416.00
2019-02-17T10:12:51.106Z,101208.00
2019-02-17T10:15:19.044Z,101347.00
2019-02-17T10:17:47.035Z,101343.00
2019-02-17T10:20:34.416Z,101339.00
2019-02-17T10:23:15.006Z,101337.00
2019-02-17T10:26:02.493Z,101025.00
2019-02-17T10:28:43.295Z,101422.00
2019-02-17T10:31:30.776Z,101111.00
2019-02-17T10:34:11.206Z,101141.00
2019-02-17T10:36:58.622Z,101340.00
2019-02-17T10:39:26.553Z,101346.00
2019-02-17T10:41:54.594Z,101337.00
2019-02-17T10:44:36.717Z,101232.00
2019-02-17T10:47:24.294Z,101387.00
2019-02-17T10:50:04.512Z,101332.00
2019-02-17T10:52:51.922Z,101304.00
2019-02-17T10:55:32.778Z,101347.00
2019-02-17T10:58:00.851Z,101309.00
2019-02-17T11:00:41.770Z,101221.00
2019-02-17T11:03:29.204Z,101117.00
2019-02-17T11:06:09.446Z,101164.00
2019-02-17T11:08:56.974Z,101309.00
2019-02-17T11:11:37.614Z,101067.00
2019-02-17T11:14:05.726Z,101293.00
2019-02-17T11:16:48.613Z,101293.00
2019-02-17T11:19:28.954Z,101350.00
2019-02-17T11:22:09.104Z,101131.00
2019-02-17T11:24:50.155Z,101282.00
2019-02-17T11:27:37.656Z,101049.00
2019-02-17T11:30:18.173Z,101032.00
2019-02-17T11:36:07.300Z,101268.00
2019-02-17T11:38:47.660Z,101032.00
2019-02-17T11:41:35.396Z,101068.00
2019-02-17T11:44:15.724Z,101112.00
2019-02-17T11:47:04.189Z,101244.00
2019-02-17T11:49:45.085Z,100962.00
2019-02-17T11:52:32.553Z,101285.00
2019-02-17T11:55:13.286Z,101323.00
2019-02-17T11:58:00.790Z,101238.00
2019-02-17T12:00:41.677Z,101342.00
2019-02-17T12:03:23.252Z,101231.00
2019-02-17T12:06:03.413Z,101233.00
2019-02-17T12:08:50.832Z,101313.00
2019-02-17T12:11:31.463Z,101225.00
2019-02-17T12:14:18.867Z,101288.00
2019-02-17T12:16:59.478Z,101023.00
2019-02-17T12:19:27.539Z,101208.00
2019-02-17T12:22:34.664Z,101052.00
2019-02-17T12:25:34.666Z,101194.00
2019-02-17T12:28:06.889Z,101199.00
2019-02-17T12:30:49.317Z,101196.00
2019-02-17T12:33:20.583Z,101183.00
2019-02-17T12:35:53.438Z,101188.00
2019-02-17T12:38:41.005Z,101185.00
2019-02-17T12:41:21.654Z,101184.00
2019-02-17T12:44:09.150Z,101182.00
2019-02-17T12:46:49.867Z,101210.00
2019-02-17T12:49:37.297Z,101185.00
2019-02-17T12:52:17.804Z,101050.00
2019-02-17T12:54:58.203Z,101166.00
2019-02-17T12:57:45.622Z,100999.00
2019-02-17T13:00:16.238Z,101170.00
2019-02-17T13:03:03.693Z,101175.00
2019-02-17T13:05:44.078Z,100987.00
2019-02-17T13:08:25.115Z,100986.00
2019-02-17T13:11:12.596Z,101151.00
2019-02-17T13:13:55.258Z,101154.00
2019-02-17T13:16:43.666Z,101230.00
2019-02-17T13:19:24.463Z,101139.00
2019-02-17T13:22:11.850Z,101115.00
2019-02-17T13:24:52.489Z,100916.00
2019-02-17T13:27:39.920Z,101135.00
2019-02-17T13:30:20.996Z,101129.00
2019-02-17T13:33:08.539Z,101125.00
2019-02-17T13:35:49.044Z,101001.00
2019-02-17T13:38:36.478Z,100966.00
2019-02-17T13:41:17.068Z,101052.00
2019-02-17T13:44:04.583Z,101122.00
2019-02-17T13:46:45.154Z,100952.00
2019-02-17T13:49:13.152Z,101129.00
2019-02-17T13:51:41.490Z,101108.00
2019-02-17T13:54:09.674Z,101103.00
2019-02-17T13:56:37.737Z,101104.00
2019-02-17T13:59:25.172Z,101102.00
2019-02-17T14:01:53.271Z,101101.00
2019-02-17T14:04:40.937Z,101081.00
2019-02-17T14:07:21.655Z,100994.00
2019-02-17T14:10:09.418Z,101095.00
2019-02-17T14:12:37.783Z,101090.00
2019-02-17T14:15:25.383Z,101088.00
2019-02-17T14:18:07.634Z,101080.00
2019-02-17T14:20:35.689Z,101079.00
2019-02-17T14:23:03.733Z,101070.00
2019-02-17T14:25:51.161Z,100902.00
2019-02-17T14:28:31.910Z,101071.00
2019-02-17T14:31:19.339Z,100960.00
2019-02-17T14:33:59.934Z,100966.00
2019-02-17T14:36:48.571Z,100875.00
2019-02-17T14:39:16.592Z,101064.00
2019-02-17T14:42:05.533Z,100900.00
2019-02-17T14:44:34.847Z,101068.00
2019-02-17T14:47:02.800Z,101065.00
2019-02-17T14:49:43.194Z,101136.00
2019-02-17T14:52:31.257Z,101059.00
2019-02-17T14:55:11.318Z,101054.00
2019-02-17T14:57:52.389Z,100892.00
2019-02-17T15:00:39.923Z,101054.00
2019-02-17T15:03:20.572Z,101046.00
2019-02-17T15:05:49.066Z,101041.00
2019-02-17T15:08:36.593Z,101011.00
2019-02-17T15:11:04.599Z,101036.00
2019-02-17T15:13:52.062Z,101034.00
2019-02-17T15:16:34.466Z,101096.00
2019-02-17T15:19:15.110Z,101004.00
2019-02-17T15:22:03.048Z,100930.00
2019-02-17T15:24:46.843Z,101047.00
2019-02-17T15:27:27.823Z,101038.00
2019-02-17T15:30:17.802Z,101026.00
2019-02-17T15:32:51.511Z,101018.00
2019-02-17T15:35:19.510Z,101022.00
2019-02-17T15:37:59.670Z,101020.00
2019-02-17T15:41:06.785Z,101081.00
2019-02-17T15:43:47.391Z,100823.00
2019-02-17T15:46:15.473Z,101016.00
2019-02-17T15:48:56.514Z,100861.00
2019-02-17T15:51:24.586Z,101011.00
2019-02-17T15:54:05.595Z,100829.00
2019-02-17T15:56:45.777Z,101010.00
2019-02-17T15:59:33.262Z,100825.00
2019-02-17T16:02:13.600Z,100878.00
2019-02-17T16:05:01.207Z,101051.00
2019-02-17T16:07:42.308Z,100914.00
2019-02-17T16:10:30.055Z,100850.00
2019-02-17T16:13:10.239Z,100910.00
2019-02-17T16:15:57.877Z,100921.00
2019-02-17T16:18:38.897Z,100994.00
2019-02-17T16:21:26.820Z,100770.00
2019-02-17T16:24:07.871Z,100990.00
2019-02-17T16:26:48.791Z,100869.00
2019-02-17T16:29:17.034Z,100993.00
2019-02-17T16:31:58.004Z,100931.00
2019-02-17T16:34:26.093Z,100989.00
2019-02-17T16:37:06.934Z,100988.00
2019-02-17T16:39:54.679Z,100750.00
2019-02-17T16:42:35.089Z,100987.00
2019-02-17T16:45:22.614Z,100999.00
2019-02-17T16:48:03.296Z,101072.00
2019-02-17T16:50:50.775Z,100946.00
2019-02-17T16:53:18.944Z,101003.00
2019-02-17T16:56:06.483Z,100826.00
2019-02-17T16:58:47.440Z,100831.00
2019-02-17T17:01:35.211Z,100966.00
2019-02-17T17:04:03.234Z,101009.00
2019-02-17T17:06:31.385Z,101010.00
2019-02-17T17:09:12.370Z,100935.00
2019-02-17T17:11:40.338Z,101015.00
2019-02-17T17:14:09.095Z,101016.00
2019-02-17T17:16:56.723Z,100783.00
2019-02-17T17:19:37.672Z,100828.00
2019-02-17T17:22:05.754Z,101013.00
2019-02-17T17:24:33.846Z,101023.00
2019-02-17T17:27:14.763Z,100930.00
2019-02-17T17:29:53.526Z,101018.00
2019-02-17T17:32:33.973Z,100868.00
2019-02-17T17:35:21.457Z,101016.00
2019-02-17T17:38:02.364Z,101021.00
2019-02-17T17:40:49.838Z,100849.00
2019-02-17T17:43:30.678Z,100978.00
2019-02-17T17:46:18.210Z,100836.00
2019-02-17T17:48:59.235Z,100967.00
2019-02-17T17:51:47.023Z,101021.00
2019-02-17T17:54:27.564Z,101031.00
2019-02-17T17:57:15.034Z,100839.00
2019-02-17T17:59:56.127Z,101024.00
2019-02-17T18:02:24.263Z,101012.00
2019-02-17T18:04:52.372Z,101017.00
2019-02-17T18:07:20.569Z,101023.00
2019-02-17T18:09:48.996Z,101020.00
2019-02-17T18:12:58.245Z,100827.00
2019-02-17T18:15:39.004Z,100948.00
2019-02-17T18:18:07.651Z,101028.00
2019-02-17T18:20:35.720Z,101032.00
2019-02-17T18:23:04.984Z,101035.00
2019-02-17T18:25:41.078Z,101040.00
2019-02-17T18:28:09.305Z,101042.00
2019-02-17T18:30:37.582Z,101045.00
2019-02-17T18:33:18.279Z,101074.00
2019-02-17T18:36:06.127Z,100722.00
2019-02-17T18:38:34.448Z,101034.00
2019-02-17T18:41:02.613Z,101040.00
2019-02-17T18:43:30.869Z,101042.00
2019-02-17T18:45:59.191Z,101047.00
2019-02-17T18:48:27.396Z,101046.00
2019-02-17T18:50:59.079Z,101055.00
2019-02-17T18:53:25.699Z,101052.00
2019-02-17T18:55:53.876Z,101042.00
2019-02-17T18:58:34.520Z,101049.00
2019-02-17T19:01:22.559Z,101046.00
2019-02-17T19:04:03.111Z,100914.00
2019-02-17T19:06:50.721Z,101088.00
2019-02-17T19:09:32.138Z,100864.00
2019-02-17T19:12:19.742Z,101053.00
2019-02-17T19:15:01.031Z,101105.00
2019-02-17T19:17:29.304Z,101060.00
2019-02-17T19:20:10.938Z,101051.00
2019-02-17T19:22:58.505Z,101029.00
2019-02-17T19:25:27.056Z,101058.00
2019-02-17T19:27:55.205Z,101041.00
2019-02-17T19:30:35.906Z,101047.00
2019-02-17T19:33:23.449Z,101117.00
2019-02-17T19:36:04.117Z,101039.00
2019-02-17T19:38:32.294Z,101029.00
2019-02-17T19:41:01.598Z,101042.00
2019-02-17T19:43:50.897Z,101043.00
2019-02-17T19:46:19.221Z,101040.00
2019-02-17T19:49:00.239Z,101035.00
2019-02-17T19:51:40.902Z,100827.00
2019-02-17T19:54:09.343Z,101041.00
2019-02-17T19:56:57.143Z,101039.00
2019-02-17T19:59:38.376Z,100881.00
2019-02-17T20:02:06.588Z,101037.00
2019-02-17T20:04:54.331Z,101041.00
2019-02-17T20:07:22.868Z,101041.00
2019-02-17T20:09:51.280Z,101051.00
2019-02-17T20:12:19.353Z,101051.00
2019-02-17T20:14:59.866Z,101050.00
2019-02-17T20:17:47.464Z,101058.00
2019-02-17T20:20:15.923Z,101047.00
2019-02-17T20:23:03.447Z,101048.00
2019-02-17T20:25:44.046Z,101051.00
2019-02-17T20:28:12.273Z,101047.00
2019-02-17T20:30:42.715Z,101048.00
2019-02-17T20:33:10.791Z,101060.00
2019-02-17T20:35:39.091Z,101053.00
2019-02-17T20:38:26.661Z,101056.00
2019-02-17T20:40:54.696Z,101063.00
2019-02-17T20:43:22.839Z,101063.00
2019-02-17T20:45:51.254Z,101065.00
2019-02-17T20:48:38.904Z,100907.00
2019-02-17T20:51:19.679Z,101059.00
2019-02-17T20:53:47.829Z,101056.00
2019-02-17T20:56:35.481Z,101035.00
2019-02-17T20:59:16.370Z,101052.00
2019-02-17T21:02:04.060Z,101044.00
2019-02-17T21:04:44.829Z,100915.00
2019-02-17T21:07:32.393Z,100745.00
2019-02-17T21:10:12.899Z,101038.00
2019-02-17T21:13:00.482Z,100736.00
2019-02-17T21:15:40.887Z,100799.00
2019-02-17T21:18:21.104Z,101031.00
2019-02-17T21:21:02.082Z,101046.00
2019-02-17T21:23:49.628Z,101048.00
2019-02-17T21:26:30.107Z,101112.00
2019-02-17T21:29:17.825Z,101032.00
2019-02-17T21:31:46.089Z,101043.00
2019-02-17T21:34:33.766Z,101041.00
2019-02-17T21:37:14.021Z,101040.00
2019-02-17T21:40:01.857Z,100962.00
2019-02-17T21:42:43.987Z,101120.00
2019-02-17T21:45:53.368Z,101036.00
2019-02-17T21:48:35.444Z,101043.00
2019-02-17T21:51:15.664Z,100753.00
2019-02-17T21:54:03.556Z,100688.00
2019-02-17T21:56:45.967Z,100875.00
2019-02-17T21:59:14.008Z,101034.00
2019-02-17T22:01:54.971Z,101045.00
2019-02-17T22:04:42.838Z,101040.00
2019-02-17T22:07:10.885Z,101050.00
2019-02-17T22:10:00.654Z,100892.00
2019-02-17T22:12:41.192Z,100838.00
2019-02-17T22:15:12.164Z,101034.00
2019-02-17T22:17:40.401Z,101036.00
2019-02-17T22:20:27.975Z,101102.00
2019-02-17T22:23:08.835Z,100798.00
2019-02-17T22:25:56.315Z,100692.00
2019-02-17T22:28:24.254Z,101030.00
2019-02-17T22:31:11.869Z,100837.00
2019-02-17T22:33:51.914Z,101137.00
2019-02-17T22:36:43.735Z,101037.00
2019-02-17T22:39:21.503Z,101028.00
2019-02-17T22:42:09.062Z,101031.00
2019-02-17T22:44:49.707Z,100843.00
2019-02-17T22:47:37.191Z,100859.00
2019-02-17T22:50:18.164Z,100902.00
2019-02-17T22:53:06.252Z,101023.00
2019-02-17T22:55:46.969Z,100868.00
2019-02-17T22:58:27.953Z,101017.00
2019-02-17T23:01:36.941Z,100856.00
2019-02-17T23:04:04.979Z,101031.00
2019-02-17T23:06:33.024Z,101027.00
2019-02-17T23:09:20.558Z,101025.00
2019-02-17T23:11:48.668Z,101020.00
2019-02-17T23:14:36.150Z,101026.00
2019-02-17T23:17:16.972Z,100869.00
2019-02-17T23:20:04.742Z,101024.00
2019-02-17T23:22:45.196Z,101021.00
2019-02-17T23:25:33.419Z,101025.00
2019-02-17T23:28:14.266Z,100884.00
2019-02-17T23:30:42.270Z,101030.00
2019-02-17T23:33:24.321Z,101026.00
2019-02-17T23:36:12.095Z,100798.00
2019-02-17T23:38:52.626Z,101027.00
2019-02-17T23:41:36.459Z,100859.00
2019-02-17T23:44:04.585Z,101029.00
2019-02-17T23:46:32.584Z,101039.00
2019-02-17T23:49:00.622Z,101033.00
2019-02-17T23:51:42.043Z,101045.00
2019-02-17T23:54:29.572Z,101029.00
2019-02-17T23:56:57.596Z,101031.00
2019-02-17T23:59:45.007Z,101033.00
